sensor_id;sensor_type;location;lat;lon;timestamp;pressure;altitude;pressure_sealevel;temperature;humidity
74678;BME280;67324;56.326;43.982;2023-07-13T00:01:31;99614.84;;;21.64;55.95
74678;BME280;67324;56.326;43.982;2023-07-13T00:03:57;99604.66;;;21.61;56.02
74678;BME280;67324;56.326;43.982;2023-07-13T00:06:24;99611.59;;;21.62;55.99
74678;BME280;67324;56.326;43.982;2023-07-13T00:08:49;99614.66;;;21.65;56.00
74678;BME280;67324;56.326;43.982;2023-07-13T00:11:16;99617.66;;;21.62;55.93
74678;BME280;67324;56.326;43.982;2023-07-13T00:13:43;99622.56;;;21.65;55.96
74678;BME280;67324;56.326;43.982;2023-07-13T00:16:10;99617.66;;;21.62;55.92
74678;BME280;67324;56.326;43.982;2023-07-13T00:18:37;99615.19;;;21.61;55.85
74678;BME280;67324;56.326;43.982;2023-07-13T00:21:04;99617.47;;;21.64;55.98
74678;BME280;67324;56.326;43.982;2023-07-13T00:23:37;99620.09;;;21.64;55.98
74678;BME280;67324;56.326;43.982;2023-07-13T00:26:05;99613.22;;;21.63;55.92
74678;BME280;67324;56.326;43.982;2023-07-13T00:28:32;99613.56;;;21.60;56.13
74678;BME280;67324;56.326;43.982;2023-07-13T00:30:58;99621.09;;;21.63;56.03
74678;BME280;67324;56.326;43.982;2023-07-13T00:33:26;99613.72;;;21.58;55.93
74678;BME280;67324;56.326;43.982;2023-07-13T00:35:54;99621.09;;;21.63;55.89
74678;BME280;67324;56.326;43.982;2023-07-13T00:38:20;99619.66;;;21.60;55.93
74678;BME280;67324;56.326;43.982;2023-07-13T00:40:46;99625.56;;;21.62;55.93
74678;BME280;67324;56.326;43.982;2023-07-13T00:43:17;99626.38;;;21.63;56.00
74678;BME280;67324;56.326;43.982;2023-07-13T00:48:15;99631.78;;;21.61;55.97
74678;BME280;67324;56.326;43.982;2023-07-13T00:50:44;99630.00;;;21.62;55.98
74678;BME280;67324;56.326;43.982;2023-07-13T00:53:13;99626.72;;;21.60;55.95
74678;BME280;67324;56.326;43.982;2023-07-13T00:55:39;99626.91;;;21.58;55.95
74678;BME280;67324;56.326;43.982;2023-07-13T00:58:05;99625.28;;;21.57;55.94
74678;BME280;67324;56.326;43.982;2023-07-13T01:00:34;99630.97;;;21.61;55.90
74678;BME280;67324;56.326;43.982;2023-07-13T01:03:02;99625.06;;;21.59;55.94
74678;BME280;67324;56.326;43.982;2023-07-13T01:05:32;99625.06;;;21.59;56.04
74678;BME280;67324;56.326;43.982;2023-07-13T01:07:59;99621.63;;;21.58;56.06
74678;BME280;67324;56.326;43.982;2023-07-13T01:10:26;99639.06;;;21.59;55.93
74678;BME280;67324;56.326;43.982;2023-07-13T01:12:53;99638.22;;;21.59;55.90
74678;BME280;67324;56.326;43.982;2023-07-13T01:15:43;99629.72;;;21.57;55.96
74678;BME280;67324;56.326;43.982;2023-07-13T01:18:22;99628.72;;;21.58;55.94
74678;BME280;67324;56.326;43.982;2023-07-13T01:20:59;99631.34;;;21.58;55.98
74678;BME280;67324;56.326;43.982;2023-07-13T01:23:26;99627.72;;;21.59;55.98
74678;BME280;67324;56.326;43.982;2023-07-13T01:25:55;99617.75;;;21.54;56.10
74678;BME280;67324;56.326;43.982;2023-07-13T01:28:23;99632.00;;;21.60;55.93
74678;BME280;67324;56.326;43.982;2023-07-13T01:30:53;99626.09;;;21.58;56.07
74678;BME280;67324;56.326;43.982;2023-07-13T01:33:19;99627.91;;;21.57;55.98
74678;BME280;67324;56.326;43.982;2023-07-13T01:35:46;99637.41;;;21.58;55.92
74678;BME280;67324;56.326;43.982;2023-07-13T01:38:15;99632.16;;;21.58;55.90
74678;BME280;67324;56.326;43.982;2023-07-13T01:40:41;99640.25;;;21.57;55.95
74678;BME280;67324;56.326;43.982;2023-07-13T01:43:07;99637.94;;;21.54;55.84
74678;BME280;67324;56.326;43.982;2023-07-13T01:45:34;99642.69;;;21.58;55.97
74678;BME280;67324;56.326;43.982;2023-07-13T01:48:00;99637.13;;;21.53;55.98
74678;BME280;67324;56.326;43.982;2023-07-13T01:50:26;99640.25;;;21.57;55.95
74678;BME280;67324;56.326;43.982;2023-07-13T01:52:52;99628.44;;;21.53;55.93
74678;BME280;67324;56.326;43.982;2023-07-13T01:55:20;99628.44;;;21.53;55.93
74678;BME280;67324;56.326;43.982;2023-07-13T01:57:46;99630.25;;;21.52;55.94
74678;BME280;67324;56.326;43.982;2023-07-13T02:00:13;99641.22;;;21.56;55.95
74678;BME280;67324;56.326;43.982;2023-07-13T02:02:42;99633.34;;;21.56;55.96
74678;BME280;67324;56.326;43.982;2023-07-13T02:05:11;99636.97;;;21.55;55.90
74678;BME280;67324;56.326;43.982;2023-07-13T02:07:37;99630.06;;;21.54;55.90
74678;BME280;67324;56.326;43.982;2023-07-13T02:10:22;99624.78;;;21.54;55.99
74678;BME280;67324;56.326;43.982;2023-07-13T02:13:07;99621.34;;;21.53;56.00
74678;BME280;67324;56.326;43.982;2023-07-13T02:15:33;99616.28;;;21.52;55.90
74678;BME280;67324;56.326;43.982;2023-07-13T02:17:59;99612.47;;;21.54;55.96
74678;BME280;67324;56.326;43.982;2023-07-13T02:20:45;99599.84;;;21.49;55.96
74678;BME280;67324;56.326;43.982;2023-07-13T02:23:10;99609.19;;;21.52;55.96
74678;BME280;67324;56.326;43.982;2023-07-13T02:25:37;99591.94;;;21.49;55.87
74678;BME280;67324;56.326;43.982;2023-07-13T02:28:03;99600.50;;;21.52;55.95
74678;BME280;67324;56.326;43.982;2023-07-13T02:30:29;99598.19;;;21.48;55.87
74678;BME280;67324;56.326;43.982;2023-07-13T02:32:57;99606.56;;;21.52;55.80
74678;BME280;67324;56.326;43.982;2023-07-13T02:35:23;99608.38;;;21.52;55.94
74678;BME280;67324;56.326;43.982;2023-07-13T02:37:49;99613.66;;;21.52;55.88
74678;BME280;67324;56.326;43.982;2023-07-13T02:40:15;99612.63;;;21.53;55.93
74678;BME280;67324;56.326;43.982;2023-07-13T02:42:41;99612.63;;;21.53;55.98
74678;BME280;67324;56.326;43.982;2023-07-13T02:45:08;99610.38;;;21.49;55.87
74678;BME280;67324;56.326;43.982;2023-07-13T02:47:35;99609.72;;;21.47;55.96
74678;BME280;67324;56.326;43.982;2023-07-13T02:50:01;99610.53;;;21.48;55.92
74678;BME280;67324;56.326;43.982;2023-07-13T02:52:30;99609.72;;;21.47;55.99
74678;BME280;67324;56.326;43.982;2023-07-13T02:55:14;99615.78;;;21.48;55.92
74678;BME280;67324;56.326;43.982;2023-07-13T02:57:40;99606.63;;;21.44;56.01
74678;BME280;67324;56.326;43.982;2023-07-13T03:00:07;99614.19;;;21.47;55.91
74678;BME280;67324;56.326;43.982;2023-07-13T03:02:34;99611.19;;;21.50;56.00
74678;BME280;67324;56.326;43.982;2023-07-13T03:05:00;99615.63;;;21.49;55.88
74678;BME280;67324;56.326;43.982;2023-07-13T03:07:26;99614.97;;;21.47;55.91
74678;BME280;67324;56.326;43.982;2023-07-13T03:09:56;99616.59;;;21.48;55.88
74678;BME280;67324;56.326;43.982;2023-07-13T03:12:25;99614.97;;;21.47;55.88
74678;BME280;67324;56.326;43.982;2023-07-13T03:14:51;99618.78;;;21.45;56.01
74678;BME280;67324;56.326;43.982;2023-07-13T03:17:17;99622.22;;;21.45;55.95
74678;BME280;67324;56.326;43.982;2023-07-13T03:19:43;99615.16;;;21.46;55.93
74678;BME280;67324;56.326;43.982;2023-07-13T03:22:11;99612.72;;;21.44;55.94
74678;BME280;67324;56.326;43.982;2023-07-13T03:24:38;99614.81;;;21.49;55.96
74678;BME280;67324;56.326;43.982;2023-07-13T03:27:22;99622.88;;;21.47;55.96
74678;BME280;67324;56.326;43.982;2023-07-13T03:29:49;99624.69;;;21.47;55.80
74678;BME280;67324;56.326;43.982;2023-07-13T03:32:16;99615.34;;;21.44;55.91
74678;BME280;67324;56.326;43.982;2023-07-13T03:35:01;99613.69;;;21.43;55.92
74678;BME280;67324;56.326;43.982;2023-07-13T03:37:30;99619.75;;;21.44;55.86
74678;BME280;67324;56.326;43.982;2023-07-13T03:39:56;99629.13;;;21.46;55.89
74678;BME280;67324;56.326;43.982;2023-07-13T03:42:22;99628.13;;;21.47;55.98
74678;BME280;67324;56.326;43.982;2023-07-13T03:45:08;99623.03;;;21.46;55.96
74678;BME280;67324;56.326;43.982;2023-07-13T03:47:34;99623.41;;;21.43;55.91
74678;BME280;67324;56.326;43.982;2023-07-13T03:50:03;99620.78;;;21.43;55.92
74678;BME280;67324;56.326;43.982;2023-07-13T03:52:29;99628.66;;;21.43;55.91
74678;BME280;67324;56.326;43.982;2023-07-13T03:54:55;99638.03;;;21.45;56.02
74678;BME280;67324;56.326;43.982;2023-07-13T03:57:21;99632.75;;;21.45;55.95
74678;BME280;67324;56.326;43.982;2023-07-13T03:59:47;99626.69;;;21.45;55.79
74678;BME280;67324;56.326;43.982;2023-07-13T04:02:13;99629.31;;;21.45;55.98
74678;BME280;67324;56.326;43.982;2023-07-13T04:04:39;99638.84;;;21.46;56.08
74678;BME280;67324;56.326;43.982;2023-07-13T04:07:27;99623.41;;;21.43;56.02
74678;BME280;67324;56.326;43.982;2023-07-13T04:09:52;99622.75;;;21.41;55.87
74678;BME280;67324;56.326;43.982;2023-07-13T04:12:18;99626.84;;;21.43;56.00
74678;BME280;67324;56.326;43.982;2023-07-13T04:14:44;99630.13;;;21.45;55.96
74678;BME280;67324;56.326;43.982;2023-07-13T04:17:10;99626.69;;;21.45;55.93
74678;BME280;67324;56.326;43.982;2023-07-13T04:19:54;99633.94;;;21.43;55.92
74678;BME280;67324;56.326;43.982;2023-07-13T04:22:20;99625.03;;;21.44;55.99
74678;BME280;67324;56.326;43.982;2023-07-13T04:24:46;99624.22;;;21.43;55.99
74678;BME280;67324;56.326;43.982;2023-07-13T04:27:12;99630.28;;;21.44;55.88
74678;BME280;67324;56.326;43.982;2023-07-13T04:29:37;99617.50;;;21.41;55.93
74678;BME280;67324;56.326;43.982;2023-07-13T04:32:04;99629.47;;;21.43;55.91
74678;BME280;67324;56.326;43.982;2023-07-13T04:34:30;99627.84;;;21.42;55.88
74678;BME280;67324;56.326;43.982;2023-07-13T04:36:55;99627.22;;;21.40;55.93
74678;BME280;67324;56.326;43.982;2023-07-13T04:39:21;99633.94;;;21.43;55.88
74678;BME280;67324;56.326;43.982;2023-07-13T04:41:47;99626.03;;;21.43;55.96
74678;BME280;67324;56.326;43.982;2023-07-13T04:44:13;99634.75;;;21.43;56.01
74678;BME280;67324;56.326;43.982;2023-07-13T04:46:39;99626.84;;;21.43;55.95
74678;BME280;67324;56.326;43.982;2023-07-13T04:49:05;99625.22;;;21.42;55.90
74678;BME280;67324;56.326;43.982;2023-07-13T04:51:31;99624.56;;;21.40;55.94
74678;BME280;67324;56.326;43.982;2023-07-13T04:53:57;99629.03;;;21.40;56.00
74678;BME280;67324;56.326;43.982;2023-07-13T04:56:23;99634.56;;;21.45;55.88
74678;BME280;67324;56.326;43.982;2023-07-13T04:58:48;99636.84;;;21.48;55.94
74678;BME280;67324;56.326;43.982;2023-07-13T05:01:14;99628.44;;;21.53;56.09
74678;BME280;67324;56.326;43.982;2023-07-13T05:03:40;99626.44;;;21.55;56.34
74678;BME280;67324;56.326;43.982;2023-07-13T05:06:07;99631.63;;;21.63;56.55
74678;BME280;67324;56.326;43.982;2023-07-13T05:08:35;99636.38;;;21.67;57.23
74678;BME280;67324;56.326;43.982;2023-07-13T05:11:02;99638.00;;;21.68;58.01
74678;BME280;67324;56.326;43.982;2023-07-13T05:13:29;99642.09;;;21.71;58.71
74678;BME280;67324;56.326;43.982;2023-07-13T05:16:00;99643.53;;;21.73;59.24
74678;BME280;67324;56.326;43.982;2023-07-13T05:18:27;99639.94;;;21.75;60.14
74678;BME280;67324;56.326;43.982;2023-07-13T05:21:06;99636.47;;;21.74;61.06
74678;BME280;67324;56.326;43.982;2023-07-13T05:23:33;99638.09;;;21.75;60.53
74678;BME280;67324;56.326;43.982;2023-07-13T05:25:59;99629.13;;;21.69;60.68
74678;BME280;67324;56.326;43.982;2023-07-13T05:28:27;99637.66;;;21.71;61.72
74678;BME280;67324;56.326;43.982;2023-07-13T05:30:53;99631.75;;;21.69;61.97
74678;BME280;67324;56.326;43.982;2023-07-13T05:33:20;99634.53;;;21.68;62.10
74678;BME280;67324;56.326;43.982;2023-07-13T05:35:46;99625.56;;;21.62;61.96
74678;BME280;67324;56.326;43.982;2023-07-13T05:38:12;99628.84;;;21.64;61.80
74678;BME280;67324;56.326;43.982;2023-07-13T05:40:38;99626.38;;;21.63;61.60
74678;BME280;67324;56.326;43.982;2023-07-13T05:43:04;99633.63;;;21.61;61.34
74678;BME280;67324;56.326;43.982;2023-07-13T05:45:30;99624.91;;;21.60;60.73
74678;BME280;67324;56.326;43.982;2023-07-13T05:47:56;99624.91;;;21.60;60.85
74678;BME280;67324;56.326;43.982;2023-07-13T05:50:22;99619.19;;;21.57;60.62
74678;BME280;67324;56.326;43.982;2023-07-13T05:53:06;99618.34;;;21.56;60.25
74678;BME280;67324;56.326;43.982;2023-07-13T05:55:32;99619.72;;;21.52;60.44
74678;BME280;67324;56.326;43.982;2023-07-13T05:58:00;99616.56;;;21.57;60.54
74678;BME280;67324;56.326;43.982;2023-07-13T06:00:26;99616.56;;;21.57;60.54
74678;BME280;67324;56.326;43.982;2023-07-13T06:02:52;99618.56;;;21.55;60.48
74678;BME280;67324;56.326;43.982;2023-07-13T06:05:18;99619.19;;;21.57;60.60
74678;BME280;67324;56.326;43.982;2023-07-13T06:07:44;99614.91;;;21.56;60.50
74678;BME280;67324;56.326;43.982;2023-07-13T06:10:10;99614.91;;;21.56;60.73
74678;BME280;67324;56.326;43.982;2023-07-13T06:12:36;99612.47;;;21.54;60.73
74678;BME280;67324;56.326;43.982;2023-07-13T06:15:02;99608.56;;;21.50;60.61
74678;BME280;67324;56.326;43.982;2023-07-13T06:17:29;99599.31;;;21.54;60.74
74678;BME280;67324;56.326;43.982;2023-07-13T06:19:56;99604.38;;;21.56;60.59
74678;BME280;67324;56.326;43.982;2023-07-13T06:22:22;99600.13;;;21.55;60.65
74678;BME280;67324;56.326;43.982;2023-07-13T06:24:47;99590.13;;;21.50;60.58
74678;BME280;67324;56.326;43.982;2023-07-13T06:27:13;99597.22;;;21.49;60.41
74678;BME280;67324;56.326;43.982;2023-07-13T06:29:39;99598.84;;;21.50;60.43
74678;BME280;67324;56.326;43.982;2023-07-13T06:32:06;99604.75;;;21.53;60.17
74678;BME280;67324;56.326;43.982;2023-07-13T06:34:32;99602.94;;;21.53;60.19
74678;BME280;67324;56.326;43.982;2023-07-13T06:36:58;99602.94;;;21.53;60.37
74678;BME280;67324;56.326;43.982;2023-07-13T06:39:23;99595.56;;;21.48;60.07
74678;BME280;67324;56.326;43.982;2023-07-13T06:41:49;99600.50;;;21.52;60.38
74678;BME280;67324;56.326;43.982;2023-07-13T06:44:17;99597.84;;;21.52;60.22
74678;BME280;67324;56.326;43.982;2023-07-13T06:46:42;99600.81;;;21.48;59.98
74678;BME280;67324;56.326;43.982;2023-07-13T06:49:09;99605.75;;;21.52;59.90
74678;BME280;67324;56.326;43.982;2023-07-13T06:51:35;99607.38;;;21.53;60.02
74678;BME280;67324;56.326;43.982;2023-07-13T06:54:01;99605.75;;;21.52;59.91
74678;BME280;67324;56.326;43.982;2023-07-13T06:56:27;99600.00;;;21.48;59.71
74678;BME280;67324;56.326;43.982;2023-07-13T06:58:53;99605.75;;;21.52;59.98
74678;BME280;67324;56.326;43.982;2023-07-13T07:01:19;99611.03;;;21.52;59.75
74678;BME280;67324;56.326;43.982;2023-07-13T07:03:45;99600.81;;;21.48;59.68
74678;BME280;67324;56.326;43.982;2023-07-13T07:06:18;99609.56;;;21.49;59.94
74678;BME280;67324;56.326;43.982;2023-07-13T07:08:45;99612.00;;;21.50;59.93
74678;BME280;67324;56.326;43.982;2023-07-13T07:11:18;99606.72;;;21.50;59.66
74678;BME280;67324;56.326;43.982;2023-07-13T07:14:03;99618.25;;;21.49;59.67
74678;BME280;67324;56.326;43.982;2023-07-13T07:16:28;99618.25;;;21.49;59.68
74678;BME280;67324;56.326;43.982;2023-07-13T07:18:54;99619.06;;;21.50;59.55
74678;BME280;67324;56.326;43.982;2023-07-13T07:21:20;99619.25;;;21.48;59.54
74678;BME280;67324;56.326;43.982;2023-07-13T07:23:48;99616.81;;;21.47;59.51
74678;BME280;67324;56.326;43.982;2023-07-13T07:26:14;99615.97;;;21.46;59.38
74678;BME280;67324;56.326;43.982;2023-07-13T07:28:40;99628.78;;;21.49;59.46
74678;BME280;67324;56.326;43.982;2023-07-13T07:31:06;99626.50;;;21.46;59.31
74678;BME280;67324;56.326;43.982;2023-07-13T07:33:33;99628.78;;;21.49;59.35
74678;BME280;67324;56.326;43.982;2023-07-13T07:36:00;99624.06;;;21.45;59.16
74678;BME280;67324;56.326;43.982;2023-07-13T07:38:26;99628.13;;;21.47;59.29
74678;BME280;67324;56.326;43.982;2023-07-13T07:40:52;99632.41;;;21.48;59.20
74678;BME280;67324;56.326;43.982;2023-07-13T07:43:18;99629.75;;;21.48;59.23
74678;BME280;67324;56.326;43.982;2023-07-13T07:45:44;99637.66;;;21.48;59.22
74678;BME280;67324;56.326;43.982;2023-07-13T07:48:11;99639.47;;;21.48;59.04
74678;BME280;67324;56.326;43.982;2023-07-13T07:50:38;99640.28;;;21.48;59.21
74678;BME280;67324;56.326;43.982;2023-07-13T07:53:06;99634.56;;;21.45;59.06
74678;BME280;67324;56.326;43.982;2023-07-13T07:55:36;99642.09;;;21.48;59.09
74678;BME280;67324;56.326;43.982;2023-07-13T07:58:02;99639.47;;;21.48;59.02
74678;BME280;67324;56.326;43.982;2023-07-13T08:00:28;99642.09;;;21.48;59.02
74678;BME280;67324;56.326;43.982;2023-07-13T08:02:56;99650.81;;;21.48;59.02
74678;BME280;67324;56.326;43.982;2023-07-13T08:05:22;99653.00;;;21.45;58.93
74678;BME280;67324;56.326;43.982;2023-07-13T08:07:48;99649.19;;;21.47;58.81
74678;BME280;67324;56.326;43.982;2023-07-13T08:10:14;99653.44;;;21.48;58.89
74678;BME280;67324;56.326;43.982;2023-07-13T08:12:40;99636.41;;;21.44;58.79
74678;BME280;67324;56.326;43.982;2023-07-13T08:15:10;99632.09;;;21.43;58.90
74678;BME280;67324;56.326;43.982;2023-07-13T08:17:36;99641.66;;;21.44;58.82
74678;BME280;67324;56.326;43.982;2023-07-13T08:20:02;99649.34;;;21.46;58.83
74678;BME280;67324;56.326;43.982;2023-07-13T08:22:31;99650.00;;;21.48;58.90
74678;BME280;67324;56.326;43.982;2023-07-13T08:24:57;99647.72;;;21.45;58.78
74678;BME280;67324;56.326;43.982;2023-07-13T08:27:24;99653.44;;;21.48;58.68
74678;BME280;67324;56.326;43.982;2023-07-13T08:29:51;99656.91;;;21.49;58.55
74678;BME280;67324;56.326;43.982;2023-07-13T08:32:18;99655.25;;;21.48;58.66
74678;BME280;67324;56.326;43.982;2023-07-13T08:34:45;99648.72;;;21.44;58.57
74678;BME280;67324;56.326;43.982;2023-07-13T08:37:11;99654.28;;;21.49;58.59
74678;BME280;67324;56.326;43.982;2023-07-13T08:39:37;99654.44;;;21.47;58.59
74678;BME280;67324;56.326;43.982;2023-07-13T08:42:16;99653.81;;;21.45;58.55
74678;BME280;67324;56.326;43.982;2023-07-13T08:47:11;99653.00;;;21.45;58.51
74678;BME280;67324;56.326;43.982;2023-07-13T08:49:39;99642.63;;;21.43;58.47
74678;BME280;67324;56.326;43.982;2023-07-13T08:52:19;99640.81;;;21.44;58.50
74678;BME280;67324;56.326;43.982;2023-07-13T08:54:51;99652.63;;;21.48;58.37
74678;BME280;67324;56.326;43.982;2023-07-13T08:57:26;99643.44;;;21.44;58.48
74678;BME280;67324;56.326;43.982;2023-07-13T08:59:55;99654.63;;;21.46;58.38
74678;BME280;67324;56.326;43.982;2023-07-13T09:02:53;99651.81;;;21.47;58.44
74678;BME280;67324;56.326;43.982;2023-07-13T09:05:30;99656.06;;;21.48;58.37
74678;BME280;67324;56.326;43.982;2023-07-13T09:10:40;99654.81;;;21.44;58.39
74678;BME280;67324;56.326;43.982;2023-07-13T09:13:24;99663.16;;;21.48;58.27
74678;BME280;67324;56.326;43.982;2023-07-13T09:15:53;99655.44;;;21.46;58.21
74678;BME280;67324;56.326;43.982;2023-07-13T09:18:35;99671.06;;;21.48;58.28
74678;BME280;67324;56.326;43.982;2023-07-13T09:21:08;99670.25;;;21.47;58.09
74678;BME280;67324;56.326;43.982;2023-07-13T09:23:36;99671.06;;;21.48;58.22
74678;BME280;67324;56.326;43.982;2023-07-13T09:26:12;99673.69;;;21.48;58.23
74678;BME280;67324;56.326;43.982;2023-07-13T09:28:42;99670.75;;;21.43;58.14
74678;BME280;67324;56.326;43.982;2023-07-13T09:31:33;99678.13;;;21.47;58.03
74678;BME280;67324;56.326;43.982;2023-07-13T09:34:00;99675.50;;;21.47;58.22
74678;BME280;67324;56.326;43.982;2023-07-13T09:36:31;99679.75;;;21.48;58.10
74678;BME280;67324;56.326;43.982;2023-07-13T09:42:05;99679.09;;;21.46;57.99
74678;BME280;67324;56.326;43.982;2023-07-13T09:44:59;99677.31;;;21.47;58.13
74678;BME280;67324;56.326;43.982;2023-07-13T09:47:32;99683.41;;;21.47;58.08
74678;BME280;67324;56.326;43.982;2023-07-13T09:50:06;99679.31;;;21.45;58.01
74678;BME280;67324;56.326;43.982;2023-07-13T09:52:44;99676.47;;;21.46;58.20
74678;BME280;67324;56.326;43.982;2023-07-13T09:55:26;99683.41;;;21.47;58.00
74678;BME280;67324;56.326;43.982;2023-07-13T09:57:54;99679.47;;;21.43;57.92
74678;BME280;67324;56.326;43.982;2023-07-13T10:00:23;99682.38;;;21.48;57.91
74678;BME280;67324;56.326;43.982;2023-07-13T10:02:59;99667.13;;;21.44;57.92
74678;BME280;67324;56.326;43.982;2023-07-13T10:05:26;99674.50;;;21.48;57.87
74678;BME280;67324;56.326;43.982;2023-07-13T10:07:55;99664.31;;;21.45;57.92
74678;BME280;67324;56.326;43.982;2023-07-13T10:10:22;99667.97;;;21.44;57.86
74678;BME280;67324;56.326;43.982;2023-07-13T10:12:50;99678.94;;;21.48;57.86
74678;BME280;67324;56.326;43.982;2023-07-13T10:15:22;99670.59;;;21.44;57.99
74678;BME280;67324;56.326;43.982;2023-07-13T10:17:51;99677.66;;;21.44;57.81
74678;BME280;67324;56.326;43.982;2023-07-13T10:20:18;99675.88;;;21.44;57.88
74678;BME280;67324;56.326;43.982;2023-07-13T10:23:10;99682.38;;;21.48;57.79
74678;BME280;67324;56.326;43.982;2023-07-13T10:25:42;99681.13;;;21.44;57.76
74678;BME280;67324;56.326;43.982;2023-07-13T10:28:23;99685.38;;;21.45;57.71
74678;BME280;67324;56.326;43.982;2023-07-13T10:30:52;99689.31;;;21.49;57.71
74678;BME280;67324;56.326;43.982;2023-07-13T10:33:20;99688.16;;;21.44;57.73
74678;BME280;67324;56.326;43.982;2023-07-13T10:35:47;99695.53;;;21.48;57.72
74678;BME280;67324;56.326;43.982;2023-07-13T10:38:21;99683.75;;;21.44;57.74
74678;BME280;67324;56.326;43.982;2023-07-13T10:40:56;99679.09;;;21.46;57.81
74678;BME280;67324;56.326;43.982;2023-07-13T10:43:34;99687.66;;;21.48;57.76
74678;BME280;67324;56.326;43.982;2023-07-13T10:46:07;99683.22;;;21.49;57.73
74678;BME280;67324;56.326;43.982;2023-07-13T10:48:35;99687.50;;;21.50;57.65
74678;BME280;67324;56.326;43.982;2023-07-13T10:51:04;99681.56;;;21.48;57.56
74678;BME280;67324;56.326;43.982;2023-07-13T10:53:36;99684.03;;;21.49;57.73
74678;BME280;67324;56.326;43.982;2023-07-13T10:56:30;99685.03;;;21.48;57.76
74678;BME280;67324;56.326;43.982;2023-07-13T11:01:57;99683.22;;;21.49;57.63
74678;BME280;67324;56.326;43.982;2023-07-13T11:04:26;99682.75;;;21.45;57.64
74678;BME280;67324;56.326;43.982;2023-07-13T11:06:59;99677.47;;;21.45;57.66
74678;BME280;67324;56.326;43.982;2023-07-13T11:09:40;99683.22;;;21.49;57.64
74678;BME280;67324;56.326;43.982;2023-07-13T11:14:37;99691.13;;;21.49;57.64
74678;BME280;67324;56.326;43.982;2023-07-13T11:19:50;99681.75;;;21.46;57.68
74678;BME280;67324;56.326;43.982;2023-07-13T11:22:22;99686.84;;;21.48;57.66
74678;BME280;67324;56.326;43.982;2023-07-13T11:30:07;99684.38;;;21.46;57.59
74678;BME280;67324;56.326;43.982;2023-07-13T11:33:17;99688.50;;;21.49;57.54
74678;BME280;67324;56.326;43.982;2023-07-13T11:38:15;99680.13;;;21.45;57.50
74678;BME280;67324;56.326;43.982;2023-07-13T11:40:44;99680.59;;;21.49;57.54
74678;BME280;67324;56.326;43.982;2023-07-13T11:43:14;99674.84;;;21.45;57.49
74678;BME280;67324;56.326;43.982;2023-07-13T11:45:40;99673.03;;;21.46;57.48
74678;BME280;67324;56.326;43.982;2023-07-13T11:48:21;99679.75;;;21.48;57.52
74678;BME280;67324;56.326;43.982;2023-07-13T11:50:53;99674.84;;;21.45;57.53
74678;BME280;67324;56.326;43.982;2023-07-13T11:53:45;99683.03;;;21.50;57.45
74678;BME280;67324;56.326;43.982;2023-07-13T11:56:12;99681.41;;;21.49;57.41
74678;BME280;67324;56.326;43.982;2023-07-13T11:58:39;99681.41;;;21.49;57.43
74678;BME280;67324;56.326;43.982;2023-07-13T12:01:05;99684.03;;;21.49;57.42
74678;BME280;67324;56.326;43.982;2023-07-13T12:03:32;99683.84;;;21.51;57.40
74678;BME280;67324;56.326;43.982;2023-07-13T12:06:05;99680.41;;;21.50;57.38
74678;BME280;67324;56.326;43.982;2023-07-13T12:08:38;99687.84;;;21.47;57.37
74678;BME280;67324;56.326;43.982;2023-07-13T12:11:15;99705.09;;;21.49;57.46
74678;BME280;67324;56.326;43.982;2023-07-13T12:14:00;99690.63;;;21.45;57.42
74678;BME280;67324;56.326;43.982;2023-07-13T12:16:31;99698.00;;;21.50;57.29
74678;BME280;67324;56.326;43.982;2023-07-13T12:19:02;99705.56;;;21.53;57.24
74678;BME280;67324;56.326;43.982;2023-07-13T12:21:33;99703.94;;;21.52;57.31
74678;BME280;67324;56.326;43.982;2023-07-13T12:24:00;99700.28;;;21.53;57.39
74678;BME280;67324;56.326;43.982;2023-07-13T12:26:29;99697.84;;;21.52;57.40
74678;BME280;67324;56.326;43.982;2023-07-13T12:28:59;99689.31;;;21.49;57.34
74678;BME280;67324;56.326;43.982;2023-07-13T12:34:06;99696.19;;;21.50;57.22
74678;BME280;67324;56.326;43.982;2023-07-13T12:36:36;99698.00;;;21.50;57.33
74678;BME280;67324;56.326;43.982;2023-07-13T12:39:12;99698.47;;;21.54;57.23
74678;BME280;67324;56.326;43.982;2023-07-13T12:41:39;99690.78;;;21.52;57.24
74678;BME280;67324;56.326;43.982;2023-07-13T12:44:10;99695.38;;;21.50;57.31
74678;BME280;67324;56.326;43.982;2023-07-13T12:46:37;99702.09;;;21.53;57.28
74678;BME280;67324;56.326;43.982;2023-07-13T12:49:06;99684.03;;;21.49;57.25
74678;BME280;67324;56.326;43.982;2023-07-13T12:51:33;99694.22;;;21.53;57.21
74678;BME280;67324;56.326;43.982;2023-07-13T12:54:16;99691.41;;;21.54;57.32
74678;BME280;67324;56.326;43.982;2023-07-13T12:56:43;99699.47;;;21.53;57.32
74678;BME280;67324;56.326;43.982;2023-07-13T12:59:20;99698.47;;;21.54;57.23
74678;BME280;67324;56.326;43.982;2023-07-13T13:01:46;99693.22;;;21.54;57.19
74678;BME280;67324;56.326;43.982;2023-07-13T13:04:15;99694.22;;;21.53;57.29
74678;BME280;67324;56.326;43.982;2023-07-13T13:06:42;99694.88;;;21.55;57.21
74678;BME280;67324;56.326;43.982;2023-07-13T13:09:13;99690.56;;;21.54;57.20
74678;BME280;67324;56.326;43.982;2023-07-13T13:11:39;99678.59;;;21.51;57.15
74678;BME280;67324;56.326;43.982;2023-07-13T13:14:06;99678.44;;;21.53;57.10
74678;BME280;67324;56.326;43.982;2023-07-13T13:19:15;99675.97;;;21.51;57.21
74678;BME280;67324;56.326;43.982;2023-07-13T13:21:43;99685.66;;;21.50;57.18
74678;BME280;67324;56.326;43.982;2023-07-13T13:24:18;99682.69;;;21.54;57.22
74678;BME280;67324;56.326;43.982;2023-07-13T13:26:46;99687.94;;;21.54;57.21
74678;BME280;67324;56.326;43.982;2023-07-13T13:29:14;99680.41;;;21.50;57.17
74678;BME280;67324;56.326;43.982;2023-07-13T13:31:42;99686.31;;;21.53;57.18
74678;BME280;67324;56.326;43.982;2023-07-13T13:34:11;99701.94;;;21.54;57.00